sensor_id;sensor_type;location;lat;lon;timestamp;temperature;humidity
22069;DHT22;13887;57.196;-2.100;2023-06-10T00:00:30;13.64;67.86
22069;DHT22;13887;57.196;-2.100;2023-06-10T00:02:58;13.63;67.52
22069;DHT22;13887;57.196;-2.100;2023-06-10T00:05:26;13.61;67.64
22069;DHT22;13887;57.196;-2.100;2023-06-10T00:07:57;13.65;67.46
22069;DHT22;13887;57.196;-2.100;2023-06-10T00:10:24;13.60;67.61
22069;DHT22;13887;57.196;-2.100;2023-06-10T00:12:51;13.58;67.64
22069;DHT22;13887;57.196;-2.100;2023-06-10T00:15:18;13.60;67.54
22069;DHT22;13887;57.196;-2.100;2023-06-10T00:17:45;13.59;67.81
22069;DHT22;13887;57.196;-2.100;2023-06-10T00:20:12;13.59;67.80
22069;DHT22;13887;57.196;-2.100;2023-06-10T00:22:40;13.55;67.63
22069;DHT22;13887;57.196;-2.100;2023-06-10T00:25:09;13.55;67.71
22069;DHT22;13887;57.196;-2.100;2023-06-10T00:27:39;13.55;67.72
22069;DHT22;13887;57.196;-2.100;2023-06-10T00:30:07;13.53;67.62
22069;DHT22;13887;57.196;-2.100;2023-06-10T00:32:35;13.52;67.85
22069;DHT22;13887;57.196;-2.100;2023-06-10T00:35:03;13.50;68.00
22069;DHT22;13887;57.196;-2.100;2023-06-10T00:37:31;13.51;67.84
22069;DHT22;13887;57.196;-2.100;2023-06-10T00:39:58;13.51;67.91
22069;DHT22;13887;57.196;-2.100;2023-06-10T00:42:26;13.52;68.13
22069;DHT22;13887;57.196;-2.100;2023-06-10T00:44:54;13.49;68.30
22069;DHT22;13887;57.196;-2.100;2023-06-10T00:47:21;13.48;67.93
22069;DHT22;13887;57.196;-2.100;2023-06-10T00:49:49;13.46;67.93
22069;DHT22;13887;57.196;-2.100;2023-06-10T00:52:18;13.46;67.87
22069;DHT22;13887;57.196;-2.100;2023-06-10T00:54:46;13.47;67.90
22069;DHT22;13887;57.196;-2.100;2023-06-10T00:57:14;13.46;68.11
22069;DHT22;13887;57.196;-2.100;2023-06-10T00:59:43;13.43;68.05
22069;DHT22;13887;57.196;-2.100;2023-06-10T01:02:13;13.44;67.93
22069;DHT22;13887;57.196;-2.100;2023-06-10T01:04:39;13.40;67.97
22069;DHT22;13887;57.196;-2.100;2023-06-10T01:07:14;13.43;68.14
22069;DHT22;13887;57.196;-2.100;2023-06-10T01:09:48;13.37;68.04
22069;DHT22;13887;57.196;-2.100;2023-06-10T01:12:46;13.37;67.97
22069;DHT22;13887;57.196;-2.100;2023-06-10T01:15:17;13.38;68.18
22069;DHT22;13887;57.196;-2.100;2023-06-10T01:17:58;13.38;68.10
22069;DHT22;13887;57.196;-2.100;2023-06-10T01:20:27;13.37;68.00
22069;DHT22;13887;57.196;-2.100;2023-06-10T01:22:56;13.36;68.13
22069;DHT22;13887;57.196;-2.100;2023-06-10T01:25:26;13.32;68.14
22069;DHT22;13887;57.196;-2.100;2023-06-10T01:33:41;13.33;68.17
22069;DHT22;13887;57.196;-2.100;2023-06-10T01:36:09;13.32;68.23
22069;DHT22;13887;57.196;-2.100;2023-06-10T01:38:40;13.31;68.14
22069;DHT22;13887;57.196;-2.100;2023-06-10T01:41:10;13.32;68.13
22069;DHT22;13887;57.196;-2.100;2023-06-10T01:43:39;13.31;68.16
22069;DHT22;13887;57.196;-2.100;2023-06-10T01:46:06;13.30;68.21
22069;DHT22;13887;57.196;-2.100;2023-06-10T01:48:33;13.32;68.26
22069;DHT22;13887;57.196;-2.100;2023-06-10T01:51:00;13.34;68.14
22069;DHT22;13887;57.196;-2.100;2023-06-10T01:53:28;13.32;68.33
22069;DHT22;13887;57.196;-2.100;2023-06-10T01:55:54;13.29;68.33
22069;DHT22;13887;57.196;-2.100;2023-06-10T01:58:22;13.27;68.39
22069;DHT22;13887;57.196;-2.100;2023-06-10T02:00:49;13.29;68.36
22069;DHT22;13887;57.196;-2.100;2023-06-10T02:03:16;13.30;68.47
22069;DHT22;13887;57.196;-2.100;2023-06-10T02:05:43;13.27;68.46
22069;DHT22;13887;57.196;-2.100;2023-06-10T02:08:10;13.29;68.52
22069;DHT22;13887;57.196;-2.100;2023-06-10T02:10:37;13.30;68.58
22069;DHT22;13887;57.196;-2.100;2023-06-10T02:13:04;13.27;68.58
22069;DHT22;13887;57.196;-2.100;2023-06-10T02:15:32;13.25;68.80
22069;DHT22;13887;57.196;-2.100;2023-06-10T02:17:59;13.26;68.89
22069;DHT22;13887;57.196;-2.100;2023-06-10T02:20:27;13.24;68.91
22069;DHT22;13887;57.196;-2.100;2023-06-10T02:22:54;13.26;68.91
22069;DHT22;13887;57.196;-2.100;2023-06-10T02:25:21;13.25;68.89
22069;DHT22;13887;57.196;-2.100;2023-06-10T02:27:49;13.23;68.97
22069;DHT22;13887;57.196;-2.100;2023-06-10T02:30:17;13.24;69.01
22069;DHT22;13887;57.196;-2.100;2023-06-10T02:32:44;13.24;68.88
22069;DHT22;13887;57.196;-2.100;2023-06-10T02:35:17;13.21;68.92
22069;DHT22;13887;57.196;-2.100;2023-06-10T02:37:44;13.23;69.17
22069;DHT22;13887;57.196;-2.100;2023-06-10T02:40:11;13.25;68.92
22069;DHT22;13887;57.196;-2.100;2023-06-10T02:42:39;13.23;69.05
22069;DHT22;13887;57.196;-2.100;2023-06-10T02:45:07;13.23;69.07
22069;DHT22;13887;57.196;-2.100;2023-06-10T02:47:39;13.24;68.98
22069;DHT22;13887;57.196;-2.100;2023-06-10T02:50:10;13.23;68.83
22069;DHT22;13887;57.196;-2.100;2023-06-10T02:52:51;13.24;69.13
22069;DHT22;13887;57.196;-2.100;2023-06-10T02:55:18;13.23;69.07
22069;DHT22;13887;57.196;-2.100;2023-06-10T02:57:51;13.23;69.14
22069;DHT22;13887;57.196;-2.100;2023-06-10T03:00:20;13.22;69.20
22069;DHT22;13887;57.196;-2.100;2023-06-10T03:02:48;13.21;69.16
22069;DHT22;13887;57.196;-2.100;2023-06-10T03:05:18;13.21;69.20
22069;DHT22;13887;57.196;-2.100;2023-06-10T03:07:48;13.19;69.29
22069;DHT22;13887;57.196;-2.100;2023-06-10T03:10:15;13.18;69.34
22069;DHT22;13887;57.196;-2.100;2023-06-10T03:12:43;13.18;69.36
22069;DHT22;13887;57.196;-2.100;2023-06-10T03:15:10;13.17;69.33
22069;DHT22;13887;57.196;-2.100;2023-06-10T03:17:39;13.16;69.29
22069;DHT22;13887;57.196;-2.100;2023-06-10T03:20:06;13.16;69.47
22069;DHT22;13887;57.196;-2.100;2023-06-10T03:22:37;13.12;69.58
22069;DHT22;13887;57.196;-2.100;2023-06-10T03:25:08;13.09;69.67
22069;DHT22;13887;57.196;-2.100;2023-06-10T03:27:45;13.09;69.77
22069;DHT22;13887;57.196;-2.100;2023-06-10T03:30:13;13.11;69.78
22069;DHT22;13887;57.196;-2.100;2023-06-10T03:32:42;13.10;69.70
22069;DHT22;13887;57.196;-2.100;2023-06-10T03:35:12;13.10;69.58
22069;DHT22;13887;57.196;-2.100;2023-06-10T03:37:40;13.11;69.53
22069;DHT22;13887;57.196;-2.100;2023-06-10T03:40:08;13.10;69.58
22069;DHT22;13887;57.196;-2.100;2023-06-10T03:42:37;13.12;69.60
22069;DHT22;13887;57.196;-2.100;2023-06-10T03:45:05;13.11;69.71
22069;DHT22;13887;57.196;-2.100;2023-06-10T03:47:34;13.09;69.89
22069;DHT22;13887;57.196;-2.100;2023-06-10T03:50:05;13.07;69.77
22069;DHT22;13887;57.196;-2.100;2023-06-10T03:52:34;13.07;69.76
22069;DHT22;13887;57.196;-2.100;2023-06-10T03:55:02;13.07;69.85
22069;DHT22;13887;57.196;-2.100;2023-06-10T03:57:30;13.08;69.88
22069;DHT22;13887;57.196;-2.100;2023-06-10T03:59:57;13.09;69.74
22069;DHT22;13887;57.196;-2.100;2023-06-10T04:02:24;13.10;69.79
22069;DHT22;13887;57.196;-2.100;2023-06-10T04:04:52;13.11;69.84
22069;DHT22;13887;57.196;-2.100;2023-06-10T04:07:19;13.08;70.00
22069;DHT22;13887;57.196;-2.100;2023-06-10T04:09:47;13.07;70.00
22069;DHT22;13887;57.196;-2.100;2023-06-10T04:12:14;13.09;69.96
22069;DHT22;13887;57.196;-2.100;2023-06-10T04:14:41;13.07;70.04
22069;DHT22;13887;57.196;-2.100;2023-06-10T04:17:10;13.06;70.13
22069;DHT22;13887;57.196;-2.100;2023-06-10T04:19:38;13.04;70.05
22069;DHT22;13887;57.196;-2.100;2023-06-10T04:22:05;13.03;70.17
22069;DHT22;13887;57.196;-2.100;2023-06-10T04:24:32;13.02;70.29
22069;DHT22;13887;57.196;-2.100;2023-06-10T04:27:00;13.01;70.32
22069;DHT22;13887;57.196;-2.100;2023-06-10T04:29:27;13.04;70.33
22069;DHT22;13887;57.196;-2.100;2023-06-10T04:31:55;13.02;70.19
22069;DHT22;13887;57.196;-2.100;2023-06-10T04:34:22;13.01;70.28
22069;DHT22;13887;57.196;-2.100;2023-06-10T04:36:49;13.01;70.40
22069;DHT22;13887;57.196;-2.100;2023-06-10T04:39:17;13.01;70.45
22069;DHT22;13887;57.196;-2.100;2023-06-10T04:41:46;13.03;70.34
22069;DHT22;13887;57.196;-2.100;2023-06-10T04:44:13;13.04;70.38
22069;DHT22;13887;57.196;-2.100;2023-06-10T04:46:41;13.02;70.39
22069;DHT22;13887;57.196;-2.100;2023-06-10T04:49:08;13.00;70.53
22069;DHT22;13887;57.196;-2.100;2023-06-10T04:51:35;12.99;70.55
22069;DHT22;13887;57.196;-2.100;2023-06-10T04:54:02;12.99;70.65
22069;DHT22;13887;57.196;-2.100;2023-06-10T04:56:30;13.00;70.45
22069;DHT22;13887;57.196;-2.100;2023-06-10T04:58:57;13.02;70.35
22069;DHT22;13887;57.196;-2.100;2023-06-10T05:01:25;13.02;70.35
22069;DHT22;13887;57.196;-2.100;2023-06-10T05:03:52;13.03;70.45
22069;DHT22;13887;57.196;-2.100;2023-06-10T05:06:19;13.00;70.61
22069;DHT22;13887;57.196;-2.100;2023-06-10T05:08:47;13.01;70.58
22069;DHT22;13887;57.196;-2.100;2023-06-10T05:11:14;13.00;70.74
22069;DHT22;13887;57.196;-2.100;2023-06-10T05:13:42;13.02;70.71
22069;DHT22;13887;57.196;-2.100;2023-06-10T05:16:09;13.01;70.73
22069;DHT22;13887;57.196;-2.100;2023-06-10T05:18:36;12.99;70.86
22069;DHT22;13887;57.196;-2.100;2023-06-10T05:21:03;12.99;70.99
22069;DHT22;13887;57.196;-2.100;2023-06-10T05:23:30;12.97;71.05
22069;DHT22;13887;57.196;-2.100;2023-06-10T05:25:57;12.99;71.22
22069;DHT22;13887;57.196;-2.100;2023-06-10T05:28:25;12.96;71.24
22069;DHT22;13887;57.196;-2.100;2023-06-10T05:30:52;12.99;71.07
22069;DHT22;13887;57.196;-2.100;2023-06-10T05:33:19;12.96;71.16
22069;DHT22;13887;57.196;-2.100;2023-06-10T05:35:46;13.01;71.02
22069;DHT22;13887;57.196;-2.100;2023-06-10T05:38:13;12.99;71.03
22069;DHT22;13887;57.196;-2.100;2023-06-10T05:40:40;12.99;71.18
22069;DHT22;13887;57.196;-2.100;2023-06-10T05:43:07;12.96;71.06
22069;DHT22;13887;57.196;-2.100;2023-06-10T05:45:37;12.97;71.16
22069;DHT22;13887;57.196;-2.100;2023-06-10T05:48:04;12.97;71.20
22069;DHT22;13887;57.196;-2.100;2023-06-10T05:50:31;13.02;71.01
22069;DHT22;13887;57.196;-2.100;2023-06-10T05:53:06;13.05;71.00
22069;DHT22;13887;57.196;-2.100;2023-06-10T05:55:34;13.02;70.97
22069;DHT22;13887;57.196;-2.100;2023-06-10T05:58:03;13.04;71.04
22069;DHT22;13887;57.196;-2.100;2023-06-10T06:00:30;13.06;70.98
22069;DHT22;13887;57.196;-2.100;2023-06-10T06:02:56;13.05;71.11
22069;DHT22;13887;57.196;-2.100;2023-06-10T06:05:25;13.09;70.90
22069;DHT22;13887;57.196;-2.100;2023-06-10T06:07:52;13.10;71.10
22069;DHT22;13887;57.196;-2.100;2023-06-10T06:10:19;13.12;70.90
22069;DHT22;13887;57.196;-2.100;2023-06-10T06:12:46;13.12;70.99
22069;DHT22;13887;57.196;-2.100;2023-06-10T06:15:13;13.16;70.93
22069;DHT22;13887;57.196;-2.100;2023-06-10T06:17:40;13.14;71.26
22069;DHT22;13887;57.196;-2.100;2023-06-10T06:20:08;13.14;71.09
22069;DHT22;13887;57.196;-2.100;2023-06-10T06:22:34;13.12;71.05
22069;DHT22;13887;57.196;-2.100;2023-06-10T06:25:02;13.15;71.26
22069;DHT22;13887;57.196;-2.100;2023-06-10T06:27:29;13.14;71.13
22069;DHT22;13887;57.196;-2.100;2023-06-10T06:29:56;13.14;71.38
22069;DHT22;13887;57.196;-2.100;2023-06-10T06:32:24;13.14;71.34
22069;DHT22;13887;57.196;-2.100;2023-06-10T06:34:54;13.11;71.42
22069;DHT22;13887;57.196;-2.100;2023-06-10T06:37:22;13.14;71.40
22069;DHT22;13887;57.196;-2.100;2023-06-10T06:39:57;13.16;71.40
22069;DHT22;13887;57.196;-2.100;2023-06-10T06:42:29;13.16;71.27
22069;DHT22;13887;57.196;-2.100;2023-06-10T06:45:02;13.19;71.81
22069;DHT22;13887;57.196;-2.100;2023-06-10T06:47:29;13.18;71.38
22069;DHT22;13887;57.196;-2.100;2023-06-10T06:49:56;13.20;71.35
22069;DHT22;13887;57.196;-2.100;2023-06-10T06:52:23;13.20;71.32
22069;DHT22;13887;57.196;-2.100;2023-06-10T06:54:50;13.23;71.32
22069;DHT22;13887;57.196;-2.100;2023-06-10T06:57:17;13.23;71.78
22069;DHT22;13887;57.196;-2.100;2023-06-10T06:59:44;13.26;71.25
22069;DHT22;13887;57.196;-2.100;2023-06-10T07:02:11;13.26;71.39
22069;DHT22;13887;57.196;-2.100;2023-06-10T07:04:38;13.25;71.74
22069;DHT22;13887;57.196;-2.100;2023-06-10T07:07:07;13.29;71.62
22069;DHT22;13887;57.196;-2.100;2023-06-10T07:09:35;13.31;71.51
22069;DHT22;13887;57.196;-2.100;2023-06-10T07:12:03;13.33;71.73
22069;DHT22;13887;57.196;-2.100;2023-06-10T07:14:29;13.32;71.90
22069;DHT22;13887;57.196;-2.100;2023-06-10T07:16:57;13.36;71.85
22069;DHT22;13887;57.196;-2.100;2023-06-10T07:19:24;13.36;72.50
22069;DHT22;13887;57.196;-2.100;2023-06-10T07:21:51;13.32;72.14
22069;DHT22;13887;57.196;-2.100;2023-06-10T07:24:18;13.33;72.06
22069;DHT22;13887;57.196;-2.100;2023-06-10T07:26:47;13.32;71.74
22069;DHT22;13887;57.196;-2.100;2023-06-10T07:29:14;13.34;71.93
22069;DHT22;13887;57.196;-2.100;2023-06-10T07:31:41;13.35;71.82
22069;DHT22;13887;57.196;-2.100;2023-06-10T07:34:08;13.37;71.38
22069;DHT22;13887;57.196;-2.100;2023-06-10T07:36:35;13.38;71.66
22069;DHT22;13887;57.196;-2.100;2023-06-10T07:39:04;13.39;71.84
22069;DHT22;13887;57.196;-2.100;2023-06-10T07:41:31;13.40;71.87
22069;DHT22;13887;57.196;-2.100;2023-06-10T07:43:58;13.41;72.04
22069;DHT22;13887;57.196;-2.100;2023-06-10T07:46:25;13.41;71.53
22069;DHT22;13887;57.196;-2.100;2023-06-10T07:48:54;13.45;71.57
22069;DHT22;13887;57.196;-2.100;2023-06-10T07:51:21;13.47;72.29
22069;DHT22;13887;57.196;-2.100;2023-06-10T07:53:48;13.48;72.54
22069;DHT22;13887;57.196;-2.100;2023-06-10T07:56:15;13.50;71.55
22069;DHT22;13887;57.196;-2.100;2023-06-10T07:58:42;13.51;71.66
22069;DHT22;13887;57.196;-2.100;2023-06-10T08:01:09;13.48;71.82
22069;DHT22;13887;57.196;-2.100;2023-06-10T08:03:36;13.50;71.39
22069;DHT22;13887;57.196;-2.100;2023-06-10T08:06:03;13.51;72.19
22069;DHT22;13887;57.196;-2.100;2023-06-10T08:08:32;13.53;71.78
22069;DHT22;13887;57.196;-2.100;2023-06-10T08:10:59;13.52;71.64
22069;DHT22;13887;57.196;-2.100;2023-06-10T08:13:26;13.53;71.80
22069;DHT22;13887;57.196;-2.100;2023-06-10T08:15:53;13.53;71.91
22069;DHT22;13887;57.196;-2.100;2023-06-10T08:18:22;13.53;72.12
22069;DHT22;13887;57.196;-2.100;2023-06-10T08:20:48;13.56;71.81
22069;DHT22;13887;57.196;-2.100;2023-06-10T08:23:15;13.58;71.86
22069;DHT22;13887;57.196;-2.100;2023-06-10T08:25:42;13.56;72.97
22069;DHT22;13887;57.196;-2.100;2023-06-10T08:28:09;13.55;71.90
22069;DHT22;13887;57.196;-2.100;2023-06-10T08:30:36;13.56;71.95
22069;DHT22;13887;57.196;-2.100;2023-06-10T08:33:03;13.59;72.00
22069;DHT22;13887;57.196;-2.100;2023-06-10T08:35:30;13.59;72.10
22069;DHT22;13887;57.196;-2.100;2023-06-10T08:37:57;13.59;71.90
22069;DHT22;13887;57.196;-2.100;2023-06-10T08:40:24;13.60;71.75
22069;DHT22;13887;57.196;-2.100;2023-06-10T08:45:22;13.60;72.16
22069;DHT22;13887;57.196;-2.100;2023-06-10T08:47:50;13.62;71.97
22069;DHT22;13887;57.196;-2.100;2023-06-10T08:50:21;13.62;72.24
22069;DHT22;13887;57.196;-2.100;2023-06-10T08:52:54;13.64;72.06
22069;DHT22;13887;57.196;-2.100;2023-06-10T08:55:30;13.63;72.61
22069;DHT22;13887;57.196;-2.100;2023-06-10T08:58:00;13.64;72.64
22069;DHT22;13887;57.196;-2.100;2023-06-10T09:00:28;13.66;72.79
22069;DHT22;13887;57.196;-2.100;2023-06-10T09:02:57;13.68;72.45
22069;DHT22;13887;57.196;-2.100;2023-06-10T09:05:28;13.67;72.50
22069;DHT22;13887;57.196;-2.100;2023-06-10T09:07:57;13.68;72.72
22069;DHT22;13887;57.196;-2.100;2023-06-10T09:10:24;13.68;72.81
22069;DHT22;13887;57.196;-2.100;2023-06-10T09:12:52;13.69;72.61
22069;DHT22;13887;57.196;-2.100;2023-06-10T09:15:19;13.69;73.04
22069;DHT22;13887;57.196;-2.100;2023-06-10T09:17:47;13.71;73.38
22069;DHT22;13887;57.196;-2.100;2023-06-10T09:20:14;13.71;73.09
22069;DHT22;13887;57.196;-2.100;2023-06-10T09:22:42;13.74;72.99
22069;DHT22;13887;57.196;-2.100;2023-06-10T09:25:11;13.74;73.07
22069;DHT22;13887;57.196;-2.100;2023-06-10T09:27:51;13.75;72.78
22069;DHT22;13887;57.196;-2.100;2023-06-10T09:30:31;13.75;72.34
22069;DHT22;13887;57.196;-2.100;2023-06-10T09:33:00;13.77;72.73
22069;DHT22;13887;57.196;-2.100;2023-06-10T09:35:30;13.78;73.51
22069;DHT22;13887;57.196;-2.100;2023-06-10T09:37:59;13.78;73.09
22069;DHT22;13887;57.196;-2.100;2023-06-10T09:40:27;13.80;72.77
22069;DHT22;13887;57.196;-2.100;2023-06-10T09:42:58;13.80;73.16
22069;DHT22;13887;57.196;-2.100;2023-06-10T09:45:32;13.81;72.86
22069;DHT22;13887;57.196;-2.100;2023-06-10T09:48:00;13.84;73.07
22069;DHT22;13887;57.196;-2.100;2023-06-10T09:50:27;13.83;73.22
22069;DHT22;13887;57.196;-2.100;2023-06-10T09:52:55;13.84;72.90
22069;DHT22;13887;57.196;-2.100;2023-06-10T09:55:23;13.86;73.21
22069;DHT22;13887;57.196;-2.100;2023-06-10T09:57:53;13.88;72.80
22069;DHT22;13887;57.196;-2.100;2023-06-10T10:00:22;13.85;74.05
22069;DHT22;13887;57.196;-2.100;2023-06-10T10:02:52;13.86;73.57
22069;DHT22;13887;57.196;-2.100;2023-06-10T10:05:22;13.88;73.41
22069;DHT22;13887;57.196;-2.100;2023-06-10T10:07:50;13.84;73.48
22069;DHT22;13887;57.196;-2.100;2023-06-10T10:10:19;13.86;73.51
22069;DHT22;13887;57.196;-2.100;2023-06-10T10:12:48;13.89;73.39
22069;DHT22;13887;57.196;-2.100;2023-06-10T10:15:17;13.88;73.35
22069;DHT22;13887;57.196;-2.100;2023-06-10T10:17:55;13.88;73.46
22069;DHT22;13887;57.196;-2.100;2023-06-10T10:20:29;13.91;73.74
22069;DHT22;13887;57.196;-2.100;2023-06-10T10:22:57;13.90;73.58
22069;DHT22;13887;57.196;-2.100;2023-06-10T10:25:28;13.90;73.70
22069;DHT22;13887;57.196;-2.100;2023-06-10T10:28:02;13.90;73.63
22069;DHT22;13887;57.196;-2.100;2023-06-10T10:30:39;13.90;73.91
22069;DHT22;13887;57.196;-2.100;2023-06-10T10:33:13;13.94;73.66
22069;DHT22;13887;57.196;-2.100;2023-06-10T10:35:47;13.94;73.96
22069;DHT22;13887;57.196;-2.100;2023-06-10T10:38:15;13.95;73.90
22069;DHT22;13887;57.196;-2.100;2023-06-10T10:40:43;13.94;73.52
22069;DHT22;13887;57.196;-2.100;2023-06-10T10:43:11;13.96;73.64
22069;DHT22;13887;57.196;-2.100;2023-06-10T10:45:39;13.97;74.47
22069;DHT22;13887;57.196;-2.100;2023-06-10T10:48:08;13.98;73.80
22069;DHT22;13887;57.196;-2.100;2023-06-10T10:50:39;13.99;73.93
22069;DHT22;13887;57.196;-2.100;2023-06-10T10:53:07;13.99;73.93
22069;DHT22;13887;57.196;-2.100;2023-06-10T10:55:35;14.01;74.17
22069;DHT22;13887;57.196;-2.100;2023-06-10T10:58:08;14.04;74.11
22069;DHT22;13887;57.196;-2.100;2023-06-10T11:00:38;14.04;73.96
22069;DHT22;13887;57.196;-2.100;2023-06-10T11:03:15;14.03;74.33
22069;DHT22;13887;57.196;-2.100;2023-06-10T11:05:47;14.04;74.34
22069;DHT22;13887;57.196;-2.100;2023-06-10T11:11:26;14.06;74.53
22069;DHT22;13887;57.196;-2.100;2023-06-10T11:16:29;14.07;74.81
22069;DHT22;13887;57.196;-2.100;2023-06-10T11:18:57;14.09;74.54
22069;DHT22;13887;57.196;-2.100;2023-06-10T11:21:24;14.09;74.78
22069;DHT22;13887;57.196;-2.100;2023-06-10T11:23:57;14.11;74.51
22069;DHT22;13887;57.196;-2.100;2023-06-10T11:26:29;14.11;74.48
22069;DHT22;13887;57.196;-2.100;2023-06-10T11:29:03;14.12;74.65
22069;DHT22;13887;57.196;-2.100;2023-06-10T11:31:42;14.14;74.90
22069;DHT22;13887;57.196;-2.100;2023-06-10T11:34:10;14.15;74.77
22069;DHT22;13887;57.196;-2.100;2023-06-10T11:36:42;14.13;75.08
22069;DHT22;13887;57.196;-2.100;2023-06-10T11:39:11;14.14;75.21
22069;DHT22;13887;57.196;-2.100;2023-06-10T11:41:39;14.17;75.09
22069;DHT22;13887;57.196;-2.100;2023-06-10T11:44:13;14.19;74.83
22069;DHT22;13887;57.196;-2.100;2023-06-10T11:46:47;14.22;75.01
22069;DHT22;13887;57.196;-2.100;2023-06-10T11:49:15;14.22;74.97
22069;DHT22;13887;57.196;-2.100;2023-06-10T11:51:42;14.22;74.79
22069;DHT22;13887;57.196;-2.100;2023-06-10T11:54:17;14.25;74.76
22069;DHT22;13887;57.196;-2.100;2023-06-10T11:56:44;14.25;74.85
22069;DHT22;13887;57.196;-2.100;2023-06-10T11:59:11;14.27;74.96
22069;DHT22;13887;57.196;-2.100;2023-06-10T12:01:43;14.27;74.75
22069;DHT22;13887;57.196;-2.100;2023-06-10T12:04:12;14.30;75.03
22069;DHT22;13887;57.196;-2.100;2023-06-10T12:06:46;14.34;74.89
22069;DHT22;13887;57.196;-2.100;2023-06-10T12:09:25;14.36;74.81
22069;DHT22;13887;57.196;-2.100;2023-06-10T12:11:59;14.36;75.03
22069;DHT22;13887;57.196;-2.100;2023-06-10T12:14:58;14.36;75.15
22069;DHT22;13887;57.196;-2.100;2023-06-10T12:20:00;14.39;75.38
22069;DHT22;13887;57.196;-2.100;2023-06-10T12:22:39;14.40;74.99
22069;DHT22;13887;57.196;-2.100;2023-06-10T12:25:07;14.43;75.10
22069;DHT22;13887;57.196;-2.100;2023-06-10T12:27:35;14.47;75.26
22069;DHT22;13887;57.196;-2.100;2023-06-10T12:30:05;14.47;75.32
22069;DHT22;13887;57.196;-2.100;2023-06-10T12:35:04;14.45;75.43
22069;DHT22;13887;57.196;-2.100;2023-06-10T12:37:31;14.48;75.59
22069;DHT22;13887;57.196;-2.100;2023-06-10T12:40:02;14.49;75.68
22069;DHT22;13887;57.196;-2.100;2023-06-10T12:42:30;14.50;75.71
22069;DHT22;13887;57.196;-2.100;2023-06-10T12:44:58;14.52;75.41
22069;DHT22;13887;57.196;-2.100;2023-06-10T12:47:32;14.53;75.75
22069;DHT22;13887;57.196;-2.100;2023-06-10T12:50:02;14.56;75.77
22069;DHT22;13887;57.196;-2.100;2023-06-10T12:52:30;14.59;75.62
22069;DHT22;13887;57.196;-2.100;2023-06-10T12:54:57;14.62;75.72
22069;DHT22;13887;57.196;-2.100;2023-06-10T12:57:25;14.64;75.59
22069;DHT22;13887;57.196;-2.100;2023-06-10T12:59:52;14.65;75.67
22069;DHT22;13887;57.196;-2.100;2023-06-10T13:02:19;14.65;75.54
22069;DHT22;13887;57.196;-2.100;2023-06-10T13:04:47;14.67;75.54
22069;DHT22;13887;57.196;-2.100;2023-06-10T13:07:15;14.69;75.83
22069;DHT22;13887;57.196;-2.100;2023-06-10T13:09:42;14.68;75.75
22069;DHT22;13887;57.196;-2.100;2023-06-10T13:12:10;14.68;75.74
22069;DHT22;13887;57.196;-2.100;2023-06-10T13:14:42;14.71;75.79
22069;DHT22;13887;57.196;-2.100;2023-06-10T13:17:09;14.71;75.83
22069;DHT22;13887;57.196;-2.100;2023-06-10T13:19:36;14.73;75.61
22069;DHT22;13887;57.196;-2.100;2023-06-10T13:22:03;14.77;75.88
22069;DHT22;13887;57.196;-2.100;2023-06-10T13:24:30;14.75;75.89
22069;DHT22;13887;57.196;-2.100;2023-06-10T13:26:57;14.77;76.28
22069;DHT22;13887;57.196;-2.100;2023-06-10T13:29:24;14.78;75.77
22069;DHT22;13887;57.196;-2.100;2023-06-10T13:31:51;14.79;76.04
22069;DHT22;13887;57.196;-2.100;2023-06-10T13:34:18;14.82;75.84
22069;DHT22;13887;57.196;-2.100;2023-06-10T13:36:45;14.82;75.95
22069;DHT22;13887;57.196;-2.100;2023-06-10T13:39:12;14.82;76.19
22069;DHT22;13887;57.196;-2.100;2023-06-10T13:41:41;14.86;76.18
22069;DHT22;13887;57.196;-2.100;2023-06-10T13:44:08;14.89;76.14
22069;DHT22;13887;57.196;-2.100;2023-06-10T13:46:35;14.88;75.68
22069;DHT22;13887;57.196;-2.100;2023-06-10T13:49:02;14.92;75.64
22069;DHT22;13887;57.196;-2.100;2023-06-10T13:51:29;14.96;75.70
22069;DHT22;13887;57.196;-2.100;2023-06-10T13:53:57;14.97;75.63
22069;DHT22;13887;57.196;-2.100;2023-06-10T13:56:23;14.98;75.59
22069;DHT22;13887;57.196;-2.100;2023-06-10T13:58:51;15.00;75.59
22069;DHT22;13887;57.196;-2.100;2023-06-10T14:01:18;15.01;75.61
22069;DHT22;13887;57.196;-2.100;2023-06-10T14:03:46;15.03;75.62
22069;DHT22;13887;57.196;-2.100;2023-06-10T14:06:13;15.04;75.58
22069;DHT22;13887;57.196;-2.100;2023-06-10T14:08:45;15.08;75.43
22069;DHT22;13887;57.196;-2.100;2023-06-10T14:11:12;15.08;75.54
22069;DHT22;13887;57.196;-2.100;2023-06-10T14:13:39;15.09;75.30
22069;DHT22;13887;57.196;-2.100;2023-06-10T14:16:06;15.11;75.44
22069;DHT22;13887;57.196;-2.100;2023-06-10T14:18:33;15.11;75.36
22069;DHT22;13887;57.196;-2.100;2023-06-10T14:21:00;15.14;75.27
22069;DHT22;13887;57.196;-2.100;2023-06-10T14:23:27;15.17;75.13
22069;DHT22;13887;57.196;-2.100;2023-06-10T14:25:54;15.16;75.36
22069;DHT22;13887;57.196;-2.100;2023-06-10T14:28:21;15.14;75.52
22069;DHT22;13887;57.196;-2.100;2023-06-10T14:30:49;15.16;75.57
22069;DHT22;13887;57.196;-2.100;2023-06-10T14:33:16;15.19;75.42
22069;DHT22;13887;57.196;-2.100;2023-06-10T14:35:43;15.19;75.25
22069;DHT22;13887;57.196;-2.100;2023-06-10T14:38:11;15.24;75.18
22069;DHT22;13887;57.196;-2.100;2023-06-10T14:40:38;15.28;75.36
22069;DHT22;13887;57.196;-2.100;2023-06-10T14:43:05;15.29;75.12
22069;DHT22;13887;57.196;-2.100;2023-06-10T14:45:37;15.31;75.08
22069;DHT22;13887;57.196;-2.100;2023-06-10T14:48:05;15.36;75.44
22069;DHT22;13887;57.196;-2.100;2023-06-10T14:50:34;15.37;75.25
22069;DHT22;13887;57.196;-2.100;2023-06-10T14:53:02;15.38;75.08
22069;DHT22;13887;57.196;-2.100;2023-06-10T14:55:29;15.38;75.28
22069;DHT22;13887;57.196;-2.100;2023-06-10T14:57:56;15.39;75.21
22069;DHT22;13887;57.196;-2.100;2023-06-10T15:00:24;15.39;75.26
22069;DHT22;13887;57.196;-2.100;2023-06-10T15:02:52;15.43;75.61
22069;DHT22;13887;57.196;-2.100;2023-06-10T15:05:20;15.44;75.46
22069;DHT22;13887;57.196;-2.100;2023-06-10T15:07:47;15.47;75.25
22069;DHT22;13887;57.196;-2.100;2023-06-10T15:10:14;15.46;75.34
22069;DHT22;13887;57.196;-2.100;2023-06-10T15:12:43;15.46;75.25
22069;DHT22;13887;57.196;-2.100;2023-06-10T15:15:10;15.49;75.25
22069;DHT22;13887;57.196;-2.100;2023-06-10T15:17:37;15.48;75.52
22069;DHT22;13887;57.196;-2.100;2023-06-10T15:20:05;15.52;75.73
22069;DHT22;13887;57.196;-2.100;2023-06-10T15:22:32;15.54;75.76
22069;DHT22;13887;57.196;-2.100;2023-06-10T15:25:02;15.55;75.60
22069;DHT22;13887;57.196;-2.100;2023-06-10T15:27:49;15.56;76.44
22069;DHT22;13887;57.196;-2.100;2023-06-10T15:30:16;15.58;75.71
22069;DHT22;13887;57.196;-2.100;2023-06-10T15:32:43;15.60;75.76
22069;DHT22;13887;57.196;-2.100;2023-06-10T15:35:10;15.60;75.80
22069;DHT22;13887;57.196;-2.100;2023-06-10T15:37:37;15.60;75.85
22069;DHT22;13887;57.196;-2.100;2023-06-10T15:40:05;15.57;75.83
22069;DHT22;13887;57.196;-2.100;2023-06-10T15:42:33;15.59;76.70